Boxian, China
Current Conditions -  °F | °C
As of 8:00 PM on Sunday 25 Jan 2015 (Local Time) from ZHCC Reporting Station
Haze Haze  
Wind Chill: 36°   Ceiling: 4000
Heat Index: 36°   Visibility: 0.93mi
Dew Point: 32°   Wind: 2mph
Humidity: 87%   Direction: NA
Pressure: 30.27"   Gusts: NA
Location:  33.88°N, 115.77°E
Report Text: ZHCC 251200Z VRB01MPS 1500 BR OVC040 02/M00 Q1025 NOSIG
Loading
Personal Weather Stations






























Interactive Weather Map New forecast layout! Learn more

10-Day Weather Forecast

Advertisements
Track Severe Weather on mobile